Terminal Aerodrome Forecast
Issued by NWS Albany, NY

Home | Current Version | Previous Version | Text Only | Print | Product List | Glossary On
Versions: 1 2 3 4 5 6 7 8 9 10 11 12 13 14 15 16 17
000
FTUS41 KALY 270026 AAA
TAFGFL
TAF AMD
KGFL 270026Z 2700/2724 04007KT P6SM VCSH OVC080
      TEMPO 2701/2703 3SM -SHSN BR BKN035 OVC050
     FM270800 36003KT P6SM OVC060
     FM271600 24006KT P6SM SCT060=

USA.gov is the U.S. government's official web portal to all federal, state and local government web resources and services.